Ermioni — SVBA8 — position and weather

sailwx.info

Track history (hours):
 
Tides and Currents Weather Stations Pressure Air Temp Water Temp Dewpoint Dewpoint Depression Visibility Wind Speed Wind Dir Waves Ship Positions

Ermioni

Last reported at 2018-May-18 14:00 UTC. Time now 2018-May-20 09:42 UTC.
Position N 37°32' E 023°45'.

Length 80 m; draft 4.9 m.

Type: Tanker. MMSI: 241025000.

Date/timePositionNaut miles runAvg speedWind from/ knotsBaromVisibWave heightAir tempDewpointWater temp
2018-May-18 14:00N 37°32' E 023°45'4 8.7
2018-May-18 13:30N 37°35' E 023°41'4 8.8
2018-May-18 13:00N 37°38' E 023°36'5 9.0
2018-May-18 12:30N 37°39' E 023°31'4 8.9
2018-May-18 12:00N 37°39' E 023°25'4 8.8
2018-May-18 11:30N 37°39' E 023°19'4 8.9
2018-May-18 11:00N 37°40' E 023°14'4 8.0
2018-May-18 10:30N 37°44' E 023°13'5 9.2
2018-May-18 10:00N 37°48' E 023°12'5 9.1
2018-May-18 09:30N 37°52' E 023°09'4 7.4
2018-May-18 08:58N 37°55' E 023°05'0 0.1
2018-May-18 08:28N 37°55' E 023°05'0 0.0
2018-May-18 07:55N 37°55' E 023°05'0 0.0
2018-May-18 07:28N 37°55' E 023°05'0 0.0
2018-May-18 06:58N 37°55' E 023°05'0 0.0
2018-May-18 06:28N 37°55' E 023°05'0 0.0
2018-May-18 05:58N 37°55' E 023°05'0 0.0
2018-May-18 05:28N 37°55' E 023°05'0 0.0
2018-May-18 04:58N 37°55' E 023°05'0 0.0
2018-May-18 04:28N 37°55' E 023°05'0 0.0
2018-May-18 03:55N 37°55' E 023°05'0 0.0
2018-May-18 03:28N 37°55' E 023°05'0 0.0
2018-May-18 02:58N 37°55' E 023°05'0 0.0
2018-May-18 02:28N 37°55' E 023°05'0 0.0
2018-May-18 01:58N 37°55' E 023°05'0 0.0
2018-May-18 01:28N 37°55' E 023°05'0 0.0
2018-May-18 00:58N 37°55' E 023°05'0 0.0
2018-May-18 00:28N 37°55' E 023°05'0 0.0
2018-May-17 23:58N 37°55' E 023°05'0 0.0
2018-May-17 23:28N 37°55' E 023°05'0 0.0
2018-May-17 22:58N 37°55' E 023°05'0 0.0
2018-May-17 22:28N 37°55' E 023°05'0 0.0
2018-May-17 21:58N 37°55' E 023°05'0 0.0
2018-May-17 21:28N 37°55' E 023°05'0 0.0
2018-May-17 20:58N 37°55' E 023°05'0 0.0
2018-May-17 20:28N 37°55' E 023°05'0 0.0
2018-May-17 19:58N 37°55' E 023°05'0 0.0
2018-May-17 19:28N 37°55' E 023°05'0 0.0
2018-May-17 18:58N 37°55' E 023°05'0 0.0
2018-May-17 18:28N 37°55' E 023°05'0 0.0
2018-May-17 17:58N 37°55' E 023°05'0 0.0
2018-May-17 17:28N 37°55' E 023°05'0 0.0
2018-May-17 16:58N 37°55' E 023°05'0 0.0
2018-May-17 16:28N 37°55' E 023°05'0 0.0
2018-May-17 15:58N 37°55' E 023°05'0 0.0
2018-May-17 15:28N 37°55' E 023°05'0 0.0
2018-May-17 14:58N 37°55' E 023°05'0 0.0
2018-May-17 14:28N 37°55' E 023°05'0 0.0
2018-May-17 13:58N 37°55' E 023°05'0 0.0
2018-May-17 13:28N 37°55' E 023°05'0 0.0
2018-May-17 12:58N 37°55' E 023°05'0 0.0
2018-May-17 12:28N 37°55' E 023°05'0 0.0
2018-May-17 11:58N 37°55' E 023°05'0 0.0
2018-May-17 11:28N 37°55' E 023°05'0 0.0
2018-May-17 10:58N 37°55' E 023°05'0 0.0
2018-May-17 10:28N 37°55' E 023°05'0 0.0
2018-May-17 09:58N 37°55' E 023°05'0 0.0
2018-May-17 09:28N 37°55' E 023°05'0 0.0
2018-May-17 08:58N 37°55' E 023°05'0 0.0
2018-May-17 08:28N 37°55' E 023°05'0 0.0
2018-May-17 07:58N 37°55' E 023°05'0 0.0
2018-May-17 07:28N 37°55' E 023°05'0 0.0
2018-May-17 06:58N 37°55' E 023°05'0 0.2
2018-May-17 06:28N 37°55' E 023°05'1 1.2
2018-May-17 05:58N 37°54' E 023°06'1 1.3
2018-May-17 05:29N 37°54' E 023°05'0 0.0
2018-May-17 04:59N 37°54' E 023°05'0 0.0
2018-May-17 04:29N 37°54' E 023°05'0 0.0
2018-May-17 03:59N 37°54' E 023°05'0 0.0
2018-May-17 03:29N 37°54' E 023°05'0 0.0
2018-May-17 02:59N 37°54' E 023°05'0 0.0
2018-May-17 02:29N 37°54' E 023°05'0 0.0
2018-May-17 01:59N 37°54' E 023°05'0 0.0
2018-May-17 01:29N 37°54' E 023°05'0 0.0
2018-May-17 00:59N 37°54' E 023°05'0 0.1
2018-May-17 00:29N 37°54' E 023°05'0 0.1
2018-May-16 23:59N 37°54' E 023°05'0 0.0
2018-May-16 23:29N 37°54' E 023°05'0 0.2
2018-May-16 22:59N 37°54' E 023°05'0 0.0
2018-May-16 22:29N 37°54' E 023°05'0 0.0
2018-May-16 21:59N 37°54' E 023°05'0 0.1
2018-May-16 21:29N 37°54' E 023°05'0 0.1
2018-May-16 20:59N 37°54' E 023°05'0 0.1
2018-May-16 20:29N 37°54' E 023°05'0 0.1
2018-May-16 19:59N 37°54' E 023°05'0 0.0
2018-May-16 19:29N 37°54' E 023°05'0 0.0
2018-May-16 18:59N 37°54' E 023°05'0 0.0
2018-May-16 18:29N 37°54' E 023°05'0 0.1
2018-May-16 17:59N 37°54' E 023°05'0 0.0
2018-May-16 17:29N 37°54' E 023°05'0 0.0
2018-May-16 16:59N 37°54' E 023°05'0 0.0
2018-May-16 16:29N 37°54' E 023°05'0 0.0
2018-May-16 15:59N 37°54' E 023°05'0 0.1
2018-May-16 15:29N 37°54' E 023°05'0 0.0
2018-May-16 14:59N 37°54' E 023°05'0 0.0
2018-May-16 14:29N 37°54' E 023°05'0 0.0
2018-May-16 13:59N 37°54' E 023°05'0 0.0
2018-May-16 13:29N 37°54' E 023°05'0 0.0
2018-May-16 12:59N 37°54' E 023°05'0 0.0
2018-May-16 12:29N 37°54' E 023°05'0 0.0
2018-May-16 11:59N 37°54' E 023°05'0 0.0
2018-May-16 11:29N 37°54' E 023°05'0 0.0
2018-May-16 10:59N 37°54' E 023°05'0 0.0
2018-May-16 10:29N 37°54' E 023°05'0 0.0
2018-May-16 09:59N 37°54' E 023°05'0 0.0
2018-May-16 09:29N 37°54' E 023°05'0 0.0
2018-May-16 08:59N 37°54' E 023°05'0 0.0
2018-May-16 08:29N 37°54' E 023°05'0 0.0
2018-May-16 07:59N 37°54' E 023°05'0 0.0
2018-May-16 07:29N 37°54' E 023°05'0 0.0
2018-May-16 06:59N 37°54' E 023°05'0 0.0
2018-May-16 06:29N 37°54' E 023°05'0 0.0
2018-May-16 05:56N 37°54' E 023°05'0 0.0
2018-May-16 05:29N 37°54' E 023°05'0 0.1
2018-May-16 04:59N 37°54' E 023°05'0 0.0
2018-May-16 04:29N 37°54' E 023°05'0 0.0
2018-May-16 03:59N 37°54' E 023°05'0 0.1
2018-May-16 03:29N 37°54' E 023°05'0 0.1
2018-May-16 02:59N 37°54' E 023°05'0 0.0
2018-May-16 02:29N 37°54' E 023°05'0 0.1
2018-May-16 01:59N 37°54' E 023°05'0 0.0
2018-May-16 01:29N 37°54' E 023°05'0 0.0
2018-May-16 00:58N 37°54' E 023°05'0 0.0
2018-May-16 00:28N 37°54' E 023°05'0 0.1
2018-May-15 23:58N 37°54' E 023°05'0 0.1
2018-May-15 23:28N 37°54' E 023°05'0 0.1
2018-May-15 22:58N 37°54' E 023°05'0 0.0
2018-May-15 22:28N 37°54' E 023°05'0 0.0
2018-May-15 21:58N 37°54' E 023°05'0 0.0
2018-May-15 21:28N 37°54' E 023°05'0 0.0
2018-May-15 20:58N 37°54' E 023°05'0 0.0
2018-May-15 20:28N 37°54' E 023°05'0 0.0
2018-May-15 19:58N 37°54' E 023°05'0 0.0
2018-May-15 19:28N 37°54' E 023°05'0 0.0
2018-May-15 18:58N 37°54' E 023°05'0 0.0
2018-May-15 18:28N 37°54' E 023°05'0 0.0
2018-May-15 17:58N 37°54' E 023°05'0 0.0
2018-May-15 17:28N 37°54' E 023°05'0 0.0
2018-May-15 16:58N 37°54' E 023°05'0 0.0
2018-May-15 16:28N 37°54' E 023°05'0 0.0
2018-May-15 15:58N 37°54' E 023°05'0 0.0
2018-May-15 15:28N 37°54' E 023°05'0 0.0
2018-May-15 14:58N 37°54' E 023°05'0 0.0
2018-May-15 14:28N 37°54' E 023°05'0 0.0
2018-May-15 13:58N 37°54' E 023°05'0 0.0
2018-May-14 09:24N 37°54' E 023°05'0 0.0
2018-May-14 09:00N 37°54' E 023°05'0 0.0
2018-May-14 08:30N 37°54' E 023°05'0 0.0
2018-May-14 08:00N 37°54' E 023°05'0 0.0
2018-May-14 07:30N 37°54' E 023°05'0 0.0
2018-May-14 07:00N 37°54' E 023°05'0 0.0
2018-May-14 06:30N 37°54' E 023°05'0 0.0
2018-May-14 06:00N 37°54' E 023°05'0 0.0
2018-May-14 05:30N 37°54' E 023°05'0 0.0
2018-May-14 05:00N 37°54' E 023°05'0 0.0
2018-May-14 04:30N 37°54' E 023°05'0 0.0
2018-May-13 15:27N 37°54' E 023°05'0 0.0
2018-May-13 15:00N 37°54' E 023°05'0 0.0
2018-May-13 14:30N 37°54' E 023°05'0 0.0
2018-May-13 14:00N 37°54' E 023°05'0 0.0
2018-May-13 13:30N 37°54' E 023°05'0 0.0
2018-May-13 13:00N 37°54' E 023°05'0 0.0
2018-May-13 12:30N 37°54' E 023°05'0 0.0
2018-May-13 12:00N 37°54' E 023°05'0 0.0
2018-May-13 11:30N 37°54' E 023°05'0 0.0
2018-May-13 11:00N 37°54' E 023°05'0 0.0
2018-May-13 10:30N 37°54' E 023°05'0 0.0
2018-May-13 10:00N 37°54' E 023°05'0 0.0
2018-May-13 09:30N 37°54' E 023°05'0 0.0
2018-May-13 09:00N 37°54' E 023°05'0 0.0
2018-May-13 08:30N 37°54' E 023°05'0 0.0
2018-May-13 08:00N 37°54' E 023°05'0 0.0
2018-May-13 07:30N 37°54' E 023°05'0 0.0
2018-May-13 07:00N 37°54' E 023°05'0 0.1
2018-May-13 06:30N 37°54' E 023°05'0 0.1
2018-May-13 06:00N 37°54' E 023°05'0 0.0
2018-May-13 05:30N 37°54' E 023°05'0 0.1
2018-May-13 05:00N 37°54' E 023°05'0 0.0
2018-May-13 04:30N 37°54' E 023°05'0 0.1
2018-May-13 04:00N 37°54' E 023°05'0 0.0
2018-May-13 03:30N 37°54' E 023°05'0 0.0
2018-May-13 03:00N 37°54' E 023°05'0 0.0
2018-May-13 02:30N 37°54' E 023°05'0 0.1
2018-May-13 01:59N 37°54' E 023°05'0 0.1
2018-May-13 01:29N 37°54' E 023°05'0 0.0
2018-May-13 00:59N 37°54' E 023°05'0 0.0
2018-May-13 00:29N 37°54' E 023°05'0 0.0
2018-May-12 23:59N 37°54' E 023°05'0 0.0
2018-May-12 23:29N 37°54' E 023°05'0 0.0
2018-May-12 22:59N 37°54' E 023°05'0 0.1
2018-May-12 22:29N 37°54' E 023°05'0 0.0
2018-May-12 21:59N 37°54' E 023°05'0 0.1
2018-May-12 21:29N 37°54' E 023°05'0 0.0
2018-May-12 20:59N 37°54' E 023°05'0 0.0
2018-May-12 20:29N 37°54' E 023°05'0 0.0
2018-May-12 19:59N 37°54' E 023°05'0 0.0
2018-May-12 19:29N 37°54' E 023°05'0 0.0
2018-May-12 18:59N 37°54' E 023°05'0 0.0
2018-May-12 18:29N 37°54' E 023°05'0 0.0
2018-May-12 17:59N 37°54' E 023°05'0 0.0
2018-May-12 17:29N 37°54' E 023°05'0 0.0
2018-May-12 16:59N 37°54' E 023°05'0 0.0
2018-May-12 16:29N 37°54' E 023°05'0 0.0
2018-May-12 15:59N 37°54' E 023°05'0 0.0
2018-May-12 15:29N 37°54' E 023°05'0 0.0
2018-May-12 14:59N 37°54' E 023°05'0 0.0
2018-May-12 14:29N 37°54' E 023°05'0 0.0
2018-May-12 13:59N 37°54' E 023°05'0 0.0
2018-May-12 13:29N 37°54' E 023°05'0 0.0
2018-May-12 12:59N 37°54' E 023°05'0 0.0
2018-May-12 12:29N 37°54' E 023°05'0 0.0
2018-May-12 11:59N 37°54' E 023°05'0 0.0
2018-May-12 11:29N 37°54' E 023°05'0 0.0
2018-May-12 10:59N 37°54' E 023°05'0 0.0
2018-May-12 10:29N 37°54' E 023°05'0 0.0
2018-May-12 09:59N 37°54' E 023°05'0 0.0
2018-May-12 09:29N 37°54' E 023°05'0 0.0
2018-May-12 08:59N 37°54' E 023°05'0 0.0
2018-May-12 08:29N 37°54' E 023°05'0 0.2
2018-May-12 07:59N 37°54' E 023°05'0 0.1
2018-May-12 07:29N 37°54' E 023°05'0 0.0
2018-May-12 06:59N 37°54' E 023°05'0 0.0
2018-May-12 06:29N 37°54' E 023°05'0 0.1
2018-May-12 05:59N 37°54' E 023°05'0 0.0
2018-May-12 05:29N 37°54' E 023°05'0 0.1
2018-May-12 04:59N 37°54' E 023°05'0 0.0
2018-May-12 04:29N 37°54' E 023°05'0 0.0
2018-May-12 03:59N 37°54' E 023°05'0 0.1
2018-May-12 03:29N 37°54' E 023°05'0 0.0
2018-May-12 02:59N 37°54' E 023°05'0 0.0
2018-May-12 02:29N 37°54' E 023°05'0 0.0
2018-May-12 01:59N 37°54' E 023°05'0 0.0
2018-May-12 01:29N 37°54' E 023°05'0 0.0
2018-May-12 00:59N 37°54' E 023°05'0 0.1
2018-May-12 00:29N 37°54' E 023°05'0 0.0
2018-May-11 23:59N 37°54' E 023°05'0 0.1
2018-May-11 23:29N 37°54' E 023°05'0 0.0
2018-May-11 22:59N 37°54' E 023°05'0 0.0
2018-May-11 22:29N 37°54' E 023°05'0 0.0
2018-May-11 21:59N 37°54' E 023°05'0 0.0
2018-May-11 21:29N 37°54' E 023°05'0 0.0
2018-May-11 20:59N 37°54' E 023°05'0 0.0
2018-May-11 20:29N 37°54' E 023°05'0 0.0
2018-May-11 19:59N 37°54' E 023°05'0 0.0
2018-May-11 19:29N 37°54' E 023°05'0 0.1
2018-May-11 18:59N 37°54' E 023°05'0 0.0
2018-May-11 18:29N 37°54' E 023°05'0 0.0
2018-May-11 17:59N 37°54' E 023°05'0 0.2
2018-May-11 17:29N 37°54' E 023°05'0 0.1
2018-May-11 16:59N 37°54' E 023°05'0 0.0
2018-May-11 16:29N 37°54' E 023°05'0 0.0
2018-May-11 15:59N 37°54' E 023°05'0 0.0
2018-May-11 15:29N 37°54' E 023°05'0 0.0
2018-May-11 14:59N 37°54' E 023°05'0 0.0
2018-May-11 14:29N 37°54' E 023°05'0 0.0
2018-May-11 13:58N 37°54' E 023°05'0 0.0
2018-May-11 13:28N 37°54' E 023°05'0 0.0
2018-May-11 12:58N 37°54' E 023°05'0 0.0
2018-May-11 12:28N 37°54' E 023°05'0 0.0
2018-May-11 11:58N 37°54' E 023°05'0 0.1
2018-May-11 11:28N 37°54' E 023°05'0 0.0
2018-May-11 10:58N 37°54' E 023°05'0 0.0
2018-May-11 10:28N 37°54' E 023°05'0 0.1
2018-May-11 09:58N 37°54' E 023°05'0 0.2
2018-May-11 09:28N 37°54' E 023°05'0 0.1
2018-May-11 08:58N 37°54' E 023°05'0 0.0
2018-May-11 08:28N 37°54' E 023°05'0 0.0
2018-May-11 07:58N 37°54' E 023°05'0 0.0
2018-May-11 07:28N 37°54' E 023°05'0 0.0
2018-May-11 06:58N 37°54' E 023°05'0 0.0
2018-May-11 06:28N 37°54' E 023°05'0 0.0
2018-May-11 05:52N 37°54' E 023°05'0 0.0
2018-May-11 05:28N 37°54' E 023°05'0 0.0
2018-May-11 04:58N 37°54' E 023°05'0 0.0
2018-May-11 04:28N 37°54' E 023°05'0 0.0
2018-May-11 03:58N 37°54' E 023°05'0 0.0
2018-May-11 03:28N 37°54' E 023°05'0 0.0
2018-May-11 02:58N 37°54' E 023°05'0 0.0
2018-May-11 02:28N 37°54' E 023°05'0 0.0
2018-May-11 01:58N 37°54' E 023°05'0 0.0
2018-May-11 01:28N 37°54' E 023°05'0 0.0
2018-May-11 00:58N 37°54' E 023°05'0 0.0
2018-May-11 00:28N 37°54' E 023°05'0 0.0
2018-May-10 23:58N 37°54' E 023°05'0 0.1
2018-May-10 23:28N 37°54' E 023°05'0 0.0
2018-May-10 22:58N 37°54' E 023°05'0 0.0
2018-May-10 22:28N 37°54' E 023°05'0 0.0
2018-May-10 21:58N 37°54' E 023°05'0 0.0
2018-May-10 21:28N 37°54' E 023°05'0 0.1
2018-May-10 20:58N 37°54' E 023°05'0 0.1
2018-May-10 20:28N 37°54' E 023°05'0 0.0
2018-May-10 19:58N 37°54' E 023°05'0 0.0
2018-May-10 19:28N 37°54' E 023°05'0 0.1
2018-May-10 18:58N 37°54' E 023°05'0 0.1
2018-May-10 18:28N 37°54' E 023°05'0 0.0
2018-May-10 17:58N 37°54' E 023°05'0 0.0
2018-May-10 17:28N 37°54' E 023°05'0 0.4
2018-May-10 17:00N 37°54' E 023°05'3 5.6
2018-May-10 16:30N 37°53' E 023°08'3 6.5
2018-May-10 16:00N 37°51' E 023°11'4 8.8
2018-May-10 15:30N 37°47' E 023°14'4 7.8
2018-May-10 15:00N 37°44' E 023°16'3 6.2
2018-May-10 14:30N 37°41' E 023°18'2 4.5
2018-May-10 14:00N 37°40' E 023°20'4 8.7
2018-May-10 13:30N 37°39' E 023°25'4 8.3
2018-May-10 13:00N 37°37' E 023°30'5 9.0
2018-May-10 12:30N 37°34' E 023°34'  
Track history (hours):
 
Tides and Currents Weather Stations Pressure Air Temp Water Temp Dewpoint Dewpoint Depression Visibility Wind Speed Wind Dir Waves Ship Positions

Ermioni

Last reported at 2018-May-18 14:00 UTC. Time now 2018-May-20 09:42 UTC.
Position N 37°32' E 023°45'.

Length 80 m; draft 4.9 m.

Type: Tanker. MMSI: 241025000.

Date/timePositionNaut miles runAvg speedWind from/ knotsBaromVisibWave heightAir tempDewpointWater temp
2018-May-18 14:00N 37°32' E 023°45'4 8.7
2018-May-18 13:30N 37°35' E 023°41'4 8.8
2018-May-18 13:00N 37°38' E 023°36'5 9.0
2018-May-18 12:30N 37°39' E 023°31'4 8.9
2018-May-18 12:00N 37°39' E 023°25'4 8.8
2018-May-18 11:30N 37°39' E 023°19'4 8.9
2018-May-18 11:00N 37°40' E 023°14'4 8.0
2018-May-18 10:30N 37°44' E 023°13'5 9.2
2018-May-18 10:00N 37°48' E 023°12'5 9.1
2018-May-18 09:30N 37°52' E 023°09'4 7.4
2018-May-18 08:58N 37°55' E 023°05'0 0.1
2018-May-18 08:28N 37°55' E 023°05'0 0.0
2018-May-18 07:55N 37°55' E 023°05'0 0.0
2018-May-18 07:28N 37°55' E 023°05'0 0.0
2018-May-18 06:58N 37°55' E 023°05'0 0.0
2018-May-18 06:28N 37°55' E 023°05'0 0.0
2018-May-18 05:58N 37°55' E 023°05'0 0.0
2018-May-18 05:28N 37°55' E 023°05'0 0.0
2018-May-18 04:58N 37°55' E 023°05'0 0.0
2018-May-18 04:28N 37°55' E 023°05'0 0.0
2018-May-18 03:55N 37°55' E 023°05'0 0.0
2018-May-18 03:28N 37°55' E 023°05'0 0.0
2018-May-18 02:58N 37°55' E 023°05'0 0.0
2018-May-18 02:28N 37°55' E 023°05'0 0.0
2018-May-18 01:58N 37°55' E 023°05'0 0.0
2018-May-18 01:28N 37°55' E 023°05'0 0.0
2018-May-18 00:58N 37°55' E 023°05'0 0.0
2018-May-18 00:28N 37°55' E 023°05'0 0.0
2018-May-17 23:58N 37°55' E 023°05'0 0.0
2018-May-17 23:28N 37°55' E 023°05'0 0.0
2018-May-17 22:58N 37°55' E 023°05'0 0.0
2018-May-17 22:28N 37°55' E 023°05'0 0.0
2018-May-17 21:58N 37°55' E 023°05'0 0.0
2018-May-17 21:28N 37°55' E 023°05'0 0.0
2018-May-17 20:58N 37°55' E 023°05'0 0.0
2018-May-17 20:28N 37°55' E 023°05'0 0.0
2018-May-17 19:58N 37°55' E 023°05'0 0.0
2018-May-17 19:28N 37°55' E 023°05'0 0.0
2018-May-17 18:58N 37°55' E 023°05'0 0.0
2018-May-17 18:28N 37°55' E 023°05'0 0.0
2018-May-17 17:58N 37°55' E 023°05'0 0.0
2018-May-17 17:28N 37°55' E 023°05'0 0.0
2018-May-17 16:58N 37°55' E 023°05'0 0.0
2018-May-17 16:28N 37°55' E 023°05'0 0.0
2018-May-17 15:58N 37°55' E 023°05'0 0.0
2018-May-17 15:28N 37°55' E 023°05'0 0.0
2018-May-17 14:58N 37°55' E 023°05'0 0.0
2018-May-17 14:28N 37°55' E 023°05'0 0.0
2018-May-17 13:58N 37°55' E 023°05'0 0.0
2018-May-17 13:28N 37°55' E 023°05'0 0.0
2018-May-17 12:58N 37°55' E 023°05'0 0.0
2018-May-17 12:28N 37°55' E 023°05'0 0.0
2018-May-17 11:58N 37°55' E 023°05'0 0.0
2018-May-17 11:28N 37°55' E 023°05'0 0.0
2018-May-17 10:58N 37°55' E 023°05'0 0.0
2018-May-17 10:28N 37°55' E 023°05'0 0.0
2018-May-17 09:58N 37°55' E 023°05'0 0.0
2018-May-17 09:28N 37°55' E 023°05'0 0.0
2018-May-17 08:58N 37°55' E 023°05'0 0.0
2018-May-17 08:28N 37°55' E 023°05'0 0.0
2018-May-17 07:58N 37°55' E 023°05'0 0.0
2018-May-17 07:28N 37°55' E 023°05'0 0.0
2018-May-17 06:58N 37°55' E 023°05'0 0.2
2018-May-17 06:28N 37°55' E 023°05'1 1.2
2018-May-17 05:58N 37°54' E 023°06'1 1.3
2018-May-17 05:29N 37°54' E 023°05'0 0.0
2018-May-17 04:59N 37°54' E 023°05'0 0.0
2018-May-17 04:29N 37°54' E 023°05'0 0.0
2018-May-17 03:59N 37°54' E 023°05'0 0.0
2018-May-17 03:29N 37°54' E 023°05'0 0.0
2018-May-17 02:59N 37°54' E 023°05'0 0.0
2018-May-17 02:29N 37°54' E 023°05'0 0.0
2018-May-17 01:59N 37°54' E 023°05'0 0.0
2018-May-17 01:29N 37°54' E 023°05'0 0.0
2018-May-17 00:59N 37°54' E 023°05'0 0.1
2018-May-17 00:29N 37°54' E 023°05'0 0.1
2018-May-16 23:59N 37°54' E 023°05'0 0.0
2018-May-16 23:29N 37°54' E 023°05'0 0.2
2018-May-16 22:59N 37°54' E 023°05'0 0.0
2018-May-16 22:29N 37°54' E 023°05'0 0.0
2018-May-16 21:59N 37°54' E 023°05'0 0.1
2018-May-16 21:29N 37°54' E 023°05'0 0.1
2018-May-16 20:59N 37°54' E 023°05'0 0.1
2018-May-16 20:29N 37°54' E 023°05'0 0.1
2018-May-16 19:59N 37°54' E 023°05'0 0.0
2018-May-16 19:29N 37°54' E 023°05'0 0.0
2018-May-16 18:59N 37°54' E 023°05'0 0.0
2018-May-16 18:29N 37°54' E 023°05'0 0.1
2018-May-16 17:59N 37°54' E 023°05'0 0.0
2018-May-16 17:29N 37°54' E 023°05'0 0.0
2018-May-16 16:59N 37°54' E 023°05'0 0.0
2018-May-16 16:29N 37°54' E 023°05'0 0.0
2018-May-16 15:59N 37°54' E 023°05'0 0.1
2018-May-16 15:29N 37°54' E 023°05'0 0.0
2018-May-16 14:59N 37°54' E 023°05'0 0.0
2018-May-16 14:29N 37°54' E 023°05'0 0.0
2018-May-16 13:59N 37°54' E 023°05'0 0.0
2018-May-16 13:29N 37°54' E 023°05'0 0.0
2018-May-16 12:59N 37°54' E 023°05'0 0.0
2018-May-16 12:29N 37°54' E 023°05'0 0.0
2018-May-16 11:59N 37°54' E 023°05'0 0.0
2018-May-16 11:29N 37°54' E 023°05'0 0.0
2018-May-16 10:59N 37°54' E 023°05'0 0.0
2018-May-16 10:29N 37°54' E 023°05'0 0.0
2018-May-16 09:59N 37°54' E 023°05'0 0.0
2018-May-16 09:29N 37°54' E 023°05'0 0.0
2018-May-16 08:59N 37°54' E 023°05'0 0.0
2018-May-16 08:29N 37°54' E 023°05'0 0.0
2018-May-16 07:59N 37°54' E 023°05'0 0.0
2018-May-16 07:29N 37°54' E 023°05'0 0.0
2018-May-16 06:59N 37°54' E 023°05'0 0.0
2018-May-16 06:29N 37°54' E 023°05'0 0.0
2018-May-16 05:56N 37°54' E 023°05'0 0.0
2018-May-16 05:29N 37°54' E 023°05'0 0.1
2018-May-16 04:59N 37°54' E 023°05'0 0.0
2018-May-16 04:29N 37°54' E 023°05'0 0.0
2018-May-16 03:59N 37°54' E 023°05'0 0.1
2018-May-16 03:29N 37°54' E 023°05'0 0.1
2018-May-16 02:59N 37°54' E 023°05'0 0.0
2018-May-16 02:29N 37°54' E 023°05'0 0.1
2018-May-16 01:59N 37°54' E 023°05'0 0.0
2018-May-16 01:29N 37°54' E 023°05'0 0.0
2018-May-16 00:58N 37°54' E 023°05'0 0.0
2018-May-16 00:28N 37°54' E 023°05'0 0.1
2018-May-15 23:58N 37°54' E 023°05'0 0.1
2018-May-15 23:28N 37°54' E 023°05'0 0.1
2018-May-15 22:58N 37°54' E 023°05'0 0.0
2018-May-15 22:28N 37°54' E 023°05'0 0.0
2018-May-15 21:58N 37°54' E 023°05'0 0.0
2018-May-15 21:28N 37°54' E 023°05'0 0.0
2018-May-15 20:58N 37°54' E 023°05'0 0.0
2018-May-15 20:28N 37°54' E 023°05'0 0.0
2018-May-15 19:58N 37°54' E 023°05'0 0.0
2018-May-15 19:28N 37°54' E 023°05'0 0.0
2018-May-15 18:58N 37°54' E 023°05'0 0.0
2018-May-15 18:28N 37°54' E 023°05'0 0.0
2018-May-15 17:58N 37°54' E 023°05'0 0.0
2018-May-15 17:28N 37°54' E 023°05'0 0.0
2018-May-15 16:58N 37°54' E 023°05'0 0.0
2018-May-15 16:28N 37°54' E 023°05'0 0.0
2018-May-15 15:58N 37°54' E 023°05'0 0.0
2018-May-15 15:28N 37°54' E 023°05'0 0.0
2018-May-15 14:58N 37°54' E 023°05'0 0.0
2018-May-15 14:28N 37°54' E 023°05'0 0.0
2018-May-15 13:58N 37°54' E 023°05'0 0.0
2018-May-14 09:24N 37°54' E 023°05'0 0.0
2018-May-14 09:00N 37°54' E 023°05'0 0.0
2018-May-14 08:30N 37°54' E 023°05'0 0.0
2018-May-14 08:00N 37°54' E 023°05'0 0.0
2018-May-14 07:30N 37°54' E 023°05'0 0.0
2018-May-14 07:00N 37°54' E 023°05'0 0.0
2018-May-14 06:30N 37°54' E 023°05'0 0.0
2018-May-14 06:00N 37°54' E 023°05'0 0.0
2018-May-14 05:30N 37°54' E 023°05'0 0.0
2018-May-14 05:00N 37°54' E 023°05'0 0.0
2018-May-14 04:30N 37°54' E 023°05'0 0.0
2018-May-13 15:27N 37°54' E 023°05'0 0.0
2018-May-13 15:00N 37°54' E 023°05'0 0.0
2018-May-13 14:30N 37°54' E 023°05'0 0.0
2018-May-13 14:00N 37°54' E 023°05'0 0.0
2018-May-13 13:30N 37°54' E 023°05'0 0.0
2018-May-13 13:00N 37°54' E 023°05'0 0.0
2018-May-13 12:30N 37°54' E 023°05'0 0.0
2018-May-13 12:00N 37°54' E 023°05'0 0.0
2018-May-13 11:30N 37°54' E 023°05'0 0.0
2018-May-13 11:00N 37°54' E 023°05'0 0.0
2018-May-13 10:30N 37°54' E 023°05'0 0.0
2018-May-13 10:00N 37°54' E 023°05'0 0.0
2018-May-13 09:30N 37°54' E 023°05'0 0.0
2018-May-13 09:00N 37°54' E 023°05'0 0.0
2018-May-13 08:30N 37°54' E 023°05'0 0.0
2018-May-13 08:00N 37°54' E 023°05'0 0.0
2018-May-13 07:30N 37°54' E 023°05'0 0.0
2018-May-13 07:00N 37°54' E 023°05'0 0.1
2018-May-13 06:30N 37°54' E 023°05'0 0.1
2018-May-13 06:00N 37°54' E 023°05'0 0.0
2018-May-13 05:30N 37°54' E 023°05'0 0.1
2018-May-13 05:00N 37°54' E 023°05'0 0.0
2018-May-13 04:30N 37°54' E 023°05'0 0.1
2018-May-13 04:00N 37°54' E 023°05'0 0.0
2018-May-13 03:30N 37°54' E 023°05'0 0.0
2018-May-13 03:00N 37°54' E 023°05'0 0.0
2018-May-13 02:30N 37°54' E 023°05'0 0.1
2018-May-13 01:59N 37°54' E 023°05'0 0.1
2018-May-13 01:29N 37°54' E 023°05'0 0.0
2018-May-13 00:59N 37°54' E 023°05'0 0.0
2018-May-13 00:29N 37°54' E 023°05'0 0.0
2018-May-12 23:59N 37°54' E 023°05'0 0.0
2018-May-12 23:29N 37°54' E 023°05'0 0.0
2018-May-12 22:59N 37°54' E 023°05'0 0.1
2018-May-12 22:29N 37°54' E 023°05'0 0.0
2018-May-12 21:59N 37°54' E 023°05'0 0.1
2018-May-12 21:29N 37°54' E 023°05'0 0.0
2018-May-12 20:59N 37°54' E 023°05'0 0.0
2018-May-12 20:29N 37°54' E 023°05'0 0.0
2018-May-12 19:59N 37°54' E 023°05'0 0.0
2018-May-12 19:29N 37°54' E 023°05'0 0.0
2018-May-12 18:59N 37°54' E 023°05'0 0.0
2018-May-12 18:29N 37°54' E 023°05'0 0.0
2018-May-12 17:59N 37°54' E 023°05'0 0.0
2018-May-12 17:29N 37°54' E 023°05'0 0.0
2018-May-12 16:59N 37°54' E 023°05'0 0.0
2018-May-12 16:29N 37°54' E 023°05'0 0.0
2018-May-12 15:59N 37°54' E 023°05'0 0.0
2018-May-12 15:29N 37°54' E 023°05'0 0.0
2018-May-12 14:59N 37°54' E 023°05'0 0.0
2018-May-12 14:29N 37°54' E 023°05'0 0.0
2018-May-12 13:59N 37°54' E 023°05'0 0.0
2018-May-12 13:29N 37°54' E 023°05'0 0.0
2018-May-12 12:59N 37°54' E 023°05'0 0.0
2018-May-12 12:29N 37°54' E 023°05'0 0.0
2018-May-12 11:59N 37°54' E 023°05'0 0.0
2018-May-12 11:29N 37°54' E 023°05'0 0.0
2018-May-12 10:59N 37°54' E 023°05'0 0.0
2018-May-12 10:29N 37°54' E 023°05'0 0.0
2018-May-12 09:59N 37°54' E 023°05'0 0.0
2018-May-12 09:29N 37°54' E 023°05'0 0.0
2018-May-12 08:59N 37°54' E 023°05'0 0.0
2018-May-12 08:29N 37°54' E 023°05'0 0.2
2018-May-12 07:59N 37°54' E 023°05'0 0.1
2018-May-12 07:29N 37°54' E 023°05'0 0.0
2018-May-12 06:59N 37°54' E 023°05'0 0.0
2018-May-12 06:29N 37°54' E 023°05'0 0.1
2018-May-12 05:59N 37°54' E 023°05'0 0.0
2018-May-12 05:29N 37°54' E 023°05'0 0.1
2018-May-12 04:59N 37°54' E 023°05'0 0.0
2018-May-12 04:29N 37°54' E 023°05'0 0.0
2018-May-12 03:59N 37°54' E 023°05'0 0.1
2018-May-12 03:29N 37°54' E 023°05'0 0.0
2018-May-12 02:59N 37°54' E 023°05'0 0.0
2018-May-12 02:29N 37°54' E 023°05'0 0.0
2018-May-12 01:59N 37°54' E 023°05'0 0.0
2018-May-12 01:29N 37°54' E 023°05'0 0.0
2018-May-12 00:59N 37°54' E 023°05'0 0.1
2018-May-12 00:29N 37°54' E 023°05'0 0.0
2018-May-11 23:59N 37°54' E 023°05'0 0.1
2018-May-11 23:29N 37°54' E 023°05'0 0.0
2018-May-11 22:59N 37°54' E 023°05'0 0.0
2018-May-11 22:29N 37°54' E 023°05'0 0.0
2018-May-11 21:59N 37°54' E 023°05'0 0.0
2018-May-11 21:29N 37°54' E 023°05'0 0.0
2018-May-11 20:59N 37°54' E 023°05'0 0.0
2018-May-11 20:29N 37°54' E 023°05'0 0.0
2018-May-11 19:59N 37°54' E 023°05'0 0.0
2018-May-11 19:29N 37°54' E 023°05'0 0.1
2018-May-11 18:59N 37°54' E 023°05'0 0.0
2018-May-11 18:29N 37°54' E 023°05'0 0.0
2018-May-11 17:59N 37°54' E 023°05'0 0.2
2018-May-11 17:29N 37°54' E 023°05'0 0.1
2018-May-11 16:59N 37°54' E 023°05'0 0.0
2018-May-11 16:29N 37°54' E 023°05'0 0.0
2018-May-11 15:59N 37°54' E 023°05'0 0.0
2018-May-11 15:29N 37°54' E 023°05'0 0.0
2018-May-11 14:59N 37°54' E 023°05'0 0.0
2018-May-11 14:29N 37°54' E 023°05'0 0.0
2018-May-11 13:58N 37°54' E 023°05'0 0.0
2018-May-11 13:28N 37°54' E 023°05'0 0.0
2018-May-11 12:58N 37°54' E 023°05'0 0.0
2018-May-11 12:28N 37°54' E 023°05'0 0.0
2018-May-11 11:58N 37°54' E 023°05'0 0.1
2018-May-11 11:28N 37°54' E 023°05'0 0.0
2018-May-11 10:58N 37°54' E 023°05'0 0.0
2018-May-11 10:28N 37°54' E 023°05'0 0.1
2018-May-11 09:58N 37°54' E 023°05'0 0.2
2018-May-11 09:28N 37°54' E 023°05'0 0.1
2018-May-11 08:58N 37°54' E 023°05'0 0.0
2018-May-11 08:28N 37°54' E 023°05'0 0.0
2018-May-11 07:58N 37°54' E 023°05'0 0.0
2018-May-11 07:28N 37°54' E 023°05'0 0.0
2018-May-11 06:58N 37°54' E 023°05'0 0.0
2018-May-11 06:28N 37°54' E 023°05'0 0.0
2018-May-11 05:52N 37°54' E 023°05'0 0.0
2018-May-11 05:28N 37°54' E 023°05'0 0.0
2018-May-11 04:58N 37°54' E 023°05'0 0.0
2018-May-11 04:28N 37°54' E 023°05'0 0.0
2018-May-11 03:58N 37°54' E 023°05'0 0.0
2018-May-11 03:28N 37°54' E 023°05'0 0.0
2018-May-11 02:58N 37°54' E 023°05'0 0.0
2018-May-11 02:28N 37°54' E 023°05'0 0.0
2018-May-11 01:58N 37°54' E 023°05'0 0.0
2018-May-11 01:28N 37°54' E 023°05'0 0.0
2018-May-11 00:58N 37°54' E 023°05'0 0.0
2018-May-11 00:28N 37°54' E 023°05'0 0.0
2018-May-10 23:58N 37°54' E 023°05'0 0.1
2018-May-10 23:28N 37°54' E 023°05'0 0.0
2018-May-10 22:58N 37°54' E 023°05'0 0.0
2018-May-10 22:28N 37°54' E 023°05'0 0.0
2018-May-10 21:58N 37°54' E 023°05'0 0.0
2018-May-10 21:28N 37°54' E 023°05'0 0.1
2018-May-10 20:58N 37°54' E 023°05'0 0.1
2018-May-10 20:28N 37°54' E 023°05'0 0.0
2018-May-10 19:58N 37°54' E 023°05'0 0.0
2018-May-10 19:28N 37°54' E 023°05'0 0.1
2018-May-10 18:58N 37°54' E 023°05'0 0.1
2018-May-10 18:28N 37°54' E 023°05'0 0.0
2018-May-10 17:58N 37°54' E 023°05'0 0.0
2018-May-10 17:28N 37°54' E 023°05'0 0.4
2018-May-10 17:00N 37°54' E 023°05'3 5.6
2018-May-10 16:30N 37°53' E 023°08'3 6.5
2018-May-10 16:00N 37°51' E 023°11'4 8.8
2018-May-10 15:30N 37°47' E 023°14'4 7.8
2018-May-10 15:00N 37°44' E 023°16'3 6.2
2018-May-10 14:30N 37°41' E 023°18'2 4.5
2018-May-10 14:00N 37°40' E 023°20'4 8.7
2018-May-10 13:30N 37°39' E 023°25'4 8.3
2018-May-10 13:00N 37°37' E 023°30'5 9.0
2018-May-10 12:30N 37°34' E 023°34'  

Dump ship's entire track history